createdAt,value
2023-01-09T00:01:53.026Z,84.74
2023-01-09T00:06:55.922Z,83.96
2023-01-09T00:11:58.052Z,83.23
2023-01-09T00:17:00.249Z,83.57
2023-01-09T00:22:02.341Z,83.71
2023-01-09T00:27:05.340Z,83.31
2023-01-09T00:32:10.566Z,83.66
2023-01-09T00:37:13.164Z,83.41
2023-01-09T00:42:20.703Z,82.87
2023-01-09T00:47:31.370Z,82.07
2023-01-09T00:52:35.983Z,82.09
2023-01-09T00:57:38.243Z,82.48
2023-01-09T01:02:40.363Z,81.71
2023-01-09T01:07:43.367Z,81.53
2023-01-09T01:12:46.940Z,81.18
2023-01-09T01:17:49.147Z,81.15
2023-01-09T01:22:51.506Z,81.32
2023-01-09T01:27:53.608Z,81.26
2023-01-09T01:32:55.709Z,81.40
2023-01-09T01:37:57.785Z,81.37
2023-01-09T01:43:00.098Z,80.02
2023-01-09T01:48:15.677Z,78.61
2023-01-09T01:53:24.230Z,78.52
2023-01-09T01:58:27.857Z,77.74
2023-01-09T02:03:30.083Z,77.12
2023-01-09T02:08:32.542Z,76.89
2023-01-09T02:13:38.859Z,75.94
2023-01-09T02:18:54.085Z,76.08
2023-01-09T02:24:36.727Z,76.20
2023-01-09T02:30:16.293Z,75.60
2023-01-09T02:35:48.825Z,75.55
2023-01-09T02:40:59.021Z,75.52
2023-01-09T02:46:01.356Z,76.22
2023-01-09T02:51:13.643Z,75.41
2023-01-09T02:56:36.723Z,75.80
2023-01-09T03:01:49.903Z,75.51
2023-01-09T03:07:08.034Z,75.50
2023-01-09T03:12:25.247Z,76.58
2023-01-09T03:17:36.399Z,76.37
2023-01-09T03:22:40.595Z,76.59
2023-01-09T03:27:42.660Z,76.90
2023-01-09T03:32:44.731Z,77.19
2023-01-09T03:37:46.990Z,77.37
2023-01-09T03:42:49.168Z,77.01
2023-01-09T03:47:52.973Z,76.73
2023-01-09T03:52:55.181Z,75.82
2023-01-09T03:57:57.335Z,75.56
2023-01-09T04:02:59.450Z,75.45
2023-01-09T04:08:02.055Z,75.29
2023-01-09T04:13:04.121Z,74.68
2023-01-09T04:18:06.277Z,74.61
2023-01-09T04:23:08.738Z,74.69
2023-01-09T04:28:10.856Z,74.83
2023-01-09T04:33:12.948Z,74.59
2023-01-09T04:38:15.183Z,74.29
2023-01-09T04:43:17.423Z,74.46
2023-01-09T04:48:19.528Z,74.76
2023-01-09T04:53:21.601Z,76.35
2023-01-09T04:58:23.684Z,77.43
2023-01-09T05:03:25.764Z,78.07
2023-01-09T05:08:27.889Z,78.23
2023-01-09T05:13:30.419Z,79.04
2023-01-09T05:18:32.575Z,78.87
2023-01-09T05:23:34.679Z,78.09
2023-01-09T05:28:36.843Z,77.99
2023-01-09T05:33:38.943Z,78.15
2023-01-09T05:38:41.573Z,78.73
2023-01-09T05:43:43.703Z,79.06
2023-01-09T05:48:45.813Z,79.57
2023-01-09T05:53:48.340Z,79.58
2023-01-09T05:58:50.587Z,78.20
2023-01-09T06:03:52.712Z,78.63
2023-01-09T06:08:54.885Z,78.61
2023-01-09T06:13:57.096Z,77.96
2023-01-09T06:18:59.403Z,77.66
2023-01-09T06:24:01.553Z,77.00
2023-01-09T06:29:03.800Z,77.10
2023-01-09T06:34:05.935Z,76.12
2023-01-09T06:39:08.575Z,74.31
2023-01-09T06:44:10.756Z,74.39
2023-01-09T06:49:12.840Z,74.03
2023-01-09T06:54:14.925Z,74.96
2023-01-09T06:59:17.053Z,75.30
2023-01-09T07:04:21.833Z,75.58
2023-01-09T07:09:24.184Z,76.44
2023-01-09T07:14:26.336Z,76.28
2023-01-09T07:19:28.466Z,76.02
2023-01-09T07:24:30.580Z,76.76
2023-01-09T07:29:32.698Z,76.21
2023-01-09T07:34:34.887Z,75.75
2023-01-09T07:39:36.968Z,76.70
2023-01-09T07:44:39.035Z,75.47
2023-01-09T07:49:41.152Z,75.26
2023-01-09T07:54:43.252Z,74.72
2023-01-09T07:59:45.381Z,75.28
2023-01-09T08:04:47.490Z,74.78
2023-01-09T08:09:49.557Z,74.85
2023-01-09T08:14:52.030Z,74.62
2023-01-09T08:19:54.092Z,75.12
2023-01-09T08:24:56.281Z,76.27
2023-01-09T08:29:58.534Z,77.54
2023-01-09T08:35:00.817Z,80.97
2023-01-09T08:40:03.059Z,80.28
2023-01-09T08:45:24.118Z,83.61
2023-01-09T08:50:26.208Z,85.16
2023-01-09T08:55:28.341Z,85.72
2023-01-09T09:00:30.545Z,85.74
2023-01-09T09:05:33.047Z,85.98
2023-01-09T09:10:36.700Z,86.45
2023-01-09T09:15:39.131Z,88.74
2023-01-09T09:20:41.317Z,88.89
2023-01-09T09:25:43.971Z,87.83
2023-01-09T09:30:46.075Z,88.60
2023-01-09T09:35:48.176Z,87.97
2023-01-09T09:41:43.622Z,88.05
2023-01-09T09:47:18.460Z,88.49
2023-01-09T09:52:43.945Z,91.77
2023-01-09T09:57:47.222Z,93.24
2023-01-09T10:02:58.388Z,94.41
2023-01-09T10:08:16.294Z,95.35
2023-01-09T10:13:45.738Z,96.38
2023-01-09T10:18:47.979Z,96.94
2023-01-09T10:24:13.098Z,97.73
2023-01-09T10:29:49.805Z,98.17
2023-01-09T10:35:19.643Z,98.36
2023-01-09T10:40:37.113Z,98.46
2023-01-09T10:45:54.463Z,98.54
2023-01-09T10:50:57.414Z,98.68
2023-01-09T10:56:22.600Z,98.64
2023-01-09T11:01:28.418Z,98.84
2023-01-09T11:06:57.160Z,98.98
2023-01-09T11:11:59.278Z,99.10
2023-01-09T11:17:04.026Z,99.18
2023-01-09T11:22:09.407Z,99.25
2023-01-09T11:27:14.569Z,99.31
2023-01-09T11:32:24.368Z,99.41
2023-01-09T11:37:29.688Z,99.48
2023-01-09T11:42:50.494Z,99.52
2023-01-09T11:47:52.687Z,99.56
2023-01-09T11:53:15.087Z,99.55
2023-01-09T11:58:22.821Z,99.57
2023-01-09T12:03:40.149Z,99.61
2023-01-09T12:08:57.258Z,99.67
2023-01-09T12:13:59.256Z,99.66
2023-01-09T12:19:11.383Z,99.75
2023-01-09T12:24:13.436Z,99.77
2023-01-09T12:29:37.988Z,99.61
2023-01-09T12:34:49.099Z,99.48
2023-01-09T12:40:12.705Z,99.55
2023-01-09T12:45:24.152Z,99.63
2023-01-09T12:50:26.295Z,99.81
2023-01-09T12:55:34.367Z,99.92
2023-01-09T13:00:49.193Z,100.00
2023-01-09T13:05:53.539Z,100.00
2023-01-09T13:11:19.578Z,100.00
2023-01-09T13:16:28.853Z,100.00
2023-01-09T13:21:31.611Z,100.00
2023-01-09T13:26:44.190Z,100.00
2023-01-09T13:32:06.094Z,100.00
2023-01-09T13:37:22.586Z,100.00
2023-01-09T13:42:46.050Z,100.00
2023-01-09T13:48:11.050Z,100.00
2023-01-09T13:53:19.406Z,100.00
2023-01-09T13:58:22.827Z,100.00
2023-01-09T14:03:32.864Z,100.00
2023-01-09T14:08:35.293Z,100.00
2023-01-09T14:13:37.364Z,100.00
2023-01-09T14:18:46.383Z,100.00
2023-01-09T14:24:07.203Z,100.00
2023-01-09T14:29:28.539Z,99.88
2023-01-09T14:34:37.302Z,99.59
2023-01-09T14:39:43.150Z,99.48
2023-01-09T14:44:55.436Z,99.43
2023-01-09T14:50:08.559Z,99.49
2023-01-09T14:55:35.611Z,99.58
2023-01-09T15:00:46.137Z,99.54
2023-01-09T15:05:51.555Z,99.53
2023-01-09T15:10:56.083Z,99.56
2023-01-09T15:16:00.145Z,99.56
2023-01-09T15:21:03.861Z,99.27
2023-01-09T15:26:25.257Z,99.38
2023-01-09T15:31:28.646Z,99.21
2023-01-09T15:36:31.118Z,99.24
2023-01-09T15:41:51.867Z,99.08
2023-01-09T15:46:58.820Z,99.11
2023-01-09T15:52:01.626Z,99.09
2023-01-09T15:57:25.728Z,99.14
2023-01-09T16:02:46.499Z,99.36
2023-01-09T16:07:50.924Z,99.11
2023-01-09T16:12:54.719Z,99.16
2023-01-09T16:18:18.159Z,98.97
2023-01-09T16:23:30.229Z,99.21
2023-01-09T16:28:32.557Z,99.61
2023-01-09T16:33:35.388Z,99.91
2023-01-09T16:38:37.541Z,99.99
2023-01-09T16:43:39.628Z,99.99
2023-01-09T16:48:42.285Z,99.89
2023-01-09T16:53:45.144Z,99.83
2023-01-09T16:58:47.203Z,99.93
2023-01-09T17:03:49.927Z,99.95
2023-01-09T17:08:52.094Z,100.00
2023-01-09T17:13:54.247Z,100.00
2023-01-09T17:18:56.504Z,100.00
2023-01-09T17:24:18.062Z,99.98
2023-01-09T17:29:20.671Z,99.98
2023-01-09T17:34:22.811Z,100.00
2023-01-09T17:39:24.952Z,100.00
2023-01-09T17:44:27.111Z,99.99
2023-01-09T17:49:29.750Z,99.30
2023-01-09T17:54:32.585Z,99.21
2023-01-09T17:59:35.239Z,99.13
2023-01-09T18:04:39.199Z,98.98
2023-01-09T18:09:42.009Z,99.51
2023-01-09T18:14:44.062Z,99.89
2023-01-09T18:19:46.555Z,99.97
2023-01-09T18:24:48.718Z,99.99
2023-01-09T18:29:51.092Z,100.00
2023-01-09T18:34:53.197Z,100.00
2023-01-09T18:39:55.385Z,99.87
2023-01-09T18:44:57.496Z,99.87
2023-01-09T18:50:00.076Z,99.90
2023-01-09T18:55:02.185Z,99.81
2023-01-09T19:00:05.330Z,99.88
2023-01-09T19:05:08.930Z,99.89
2023-01-09T19:10:13.426Z,99.81
2023-01-09T19:15:18.898Z,99.91
2023-01-09T19:20:21.029Z,99.98
2023-01-09T19:25:23.463Z,99.94
2023-01-09T19:30:26.601Z,99.96
2023-01-09T19:35:28.914Z,100.00
2023-01-09T19:40:31.177Z,100.00
2023-01-09T19:45:33.350Z,100.00
2023-01-09T19:50:35.471Z,100.00
2023-01-09T19:55:38.928Z,100.00
2023-01-09T20:00:41.030Z,100.00
2023-01-09T20:05:43.132Z,100.00
2023-01-09T20:10:45.282Z,100.00
2023-01-09T20:15:47.736Z,100.00
2023-01-09T20:20:50.408Z,100.00
2023-01-09T20:25:54.599Z,100.00
2023-01-09T20:30:56.950Z,100.00
2023-01-09T20:36:02.864Z,100.00
2023-01-09T20:41:25.909Z,100.00
2023-01-09T20:46:30.635Z,100.00
2023-01-09T20:51:34.728Z,100.00
2023-01-09T20:56:36.959Z,100.00
2023-01-09T21:01:40.336Z,100.00
2023-01-09T21:06:42.785Z,100.00
2023-01-09T21:11:45.012Z,100.00
2023-01-09T21:16:54.528Z,100.00
2023-01-09T21:21:57.355Z,100.00
2023-01-09T21:26:59.521Z,100.00
2023-01-09T21:32:01.657Z,100.00
2023-01-09T21:37:03.932Z,100.00
2023-01-09T21:42:24.605Z,99.99
2023-01-09T21:47:26.769Z,99.98
2023-01-09T21:52:31.966Z,100.00
2023-01-09T21:57:34.072Z,100.00
2023-01-09T22:02:36.957Z,100.00
2023-01-09T22:07:39.141Z,100.00
2023-01-09T22:13:01.216Z,100.00
2023-01-09T22:18:03.378Z,100.00
2023-01-09T22:23:05.673Z,100.00
2023-01-09T22:28:10.256Z,99.96
2023-01-09T22:33:12.867Z,99.98
2023-01-09T22:38:15.015Z,99.97
2023-01-09T22:43:17.328Z,100.00
2023-01-09T22:48:19.404Z,100.00
2023-01-09T22:53:21.486Z,99.99
2023-01-09T22:58:25.480Z,100.00
2023-01-09T23:03:28.426Z,100.00
2023-01-09T23:08:31.285Z,100.00
2023-01-09T23:13:33.602Z,99.93
2023-01-09T23:18:35.810Z,99.98
2023-01-09T23:23:37.928Z,99.95
2023-01-09T23:28:40.534Z,99.90
2023-01-09T23:33:42.679Z,99.86
2023-01-09T23:38:44.866Z,99.85
2023-01-09T23:43:46.953Z,99.85
2023-01-09T23:48:49.019Z,99.83
2023-01-09T23:53:51.080Z,99.74
2023-01-09T23:58:53.338Z,99.69
